Terminal Aerodrome Forecast
Issued by NWS

Home | Current Version | Previous Version | Graphics & Text | Print | Product List | Glossary On
Versions: 1 2 3 4 5 6 7 8 9 10 11 12 13 14 15 16 17 18 19 20 21 22
000
FTUS43 KGRB 300943 AAC
TAFCWA
TAF AMD
KCWA 300943Z 3010/3106 00000KT 1SM BR SCT002
      TEMPO 3010/3013 1/2SM FG BKN002
     FM301500 21004KT P6SM BKN015
     FM301600 22007KT P6SM FEW020
     FM301800 21008KT P6SM SKC=

USA.gov is the U.S. government's official web portal to all federal, state and local government web resources and services.